Time;durP1;ratioP1;P1;durP2;ratioP2;P2;SDS_P1;SDS_P2;PMS_P1;PMS_P2;Temp;Humidity;BMP_temperature;BMP_pressure;BME280_temperature;BME280_humidity;BME280_pressure;Samples;Min_cycle;Max_cycle;Signal;HPM_P1;HPM_P2
2022/10/19 00:02:20;;;;;;;6.28;5.68;;;;;;;13.52;100.00;96794.84;5032978;28;24440;-75
2022/10/19 00:04:47;;;;;;;5.75;5.05;;;;;;;13.54;100.00;96792.16;5028290;28;24440;-73
2022/10/19 00:07:13;;;;;;;9.38;5.68;;;;;;;13.53;100.00;96791.34;5031359;28;24829;-73
2022/10/19 00:09:42;;;;;;;7.53;5.53;;;;;;;13.54;100.00;96785.19;5024036;28;24446;-73
2022/10/19 00:12:08;;;;;;;7.75;5.10;;;;;;;13.64;100.00;96789.84;5030889;28;24447;-73
2022/10/19 00:14:35;;;;;;;5.75;4.65;;;;;;;13.45;100.00;96784.88;5031407;28;24439;-73
2022/10/19 00:17:03;;;;;;;5.70;4.30;;;;;;;13.35;100.00;96788.94;5032352;28;24502;-74
2022/10/19 00:19:29;;;;;;;6.57;3.58;;;;;;;13.20;100.00;96788.88;5028044;28;24436;-75
2022/10/19 00:21:56;;;;;;;5.40;3.43;;;;;;;13.06;100.00;96786.22;5031106;28;24443;-73
2022/10/19 00:24:22;;;;;;;6.30;4.57;;;;;;;12.95;100.00;96785.97;5030865;28;24446;-73
2022/10/19 00:26:49;;;;;;;5.15;3.97;;;;;;;12.96;100.00;96780.69;5026925;28;24460;-73
2022/10/19 00:29:16;;;;;;;7.25;4.50;;;;;;;12.90;100.00;96783.63;5028708;28;24440;-74
2022/10/19 00:31:42;;;;;;;10.23;5.10;;;;;;;12.89;100.00;96788.91;5029887;28;24981;-73
2022/10/19 00:34:10;;;;;;;9.95;5.53;;;;;;;12.95;100.00;96784.22;5029997;28;24443;-73
2022/10/19 00:36:39;;;;;;;8.13;5.60;;;;;;;12.99;100.00;96779.69;5031524;28;24440;-73
2022/10/19 00:39:08;;;;;;;11.43;6.07;;;;;;;12.76;100.00;96786.19;5025685;28;24443;-73
2022/10/19 00:41:35;;;;;;;9.83;6.07;;;;;;;12.70;100.00;96779.53;5027968;28;25039;-73
2022/10/19 00:44:04;;;;;;;8.90;6.50;;;;;;;12.63;100.00;96780.78;5031671;28;24455;-73
2022/10/19 00:46:33;;;;;;;9.38;6.22;;;;;;;12.91;100.00;96781.88;5030857;28;24810;-73
2022/10/19 00:49:02;;;;;;;14.55;6.47;;;;;;;12.77;100.00;96780.03;5023409;28;24998;-73
2022/10/19 00:51:32;;;;;;;9.68;6.10;;;;;;;12.75;100.00;96790.50;5030673;28;24432;-73
2022/10/19 00:54:03;;;;;;;12.13;6.80;;;;;;;12.52;100.00;96776.19;5021923;28;24463;-72
2022/10/19 00:56:29;;;;;;;14.80;8.35;;;;;;;12.56;100.00;96782.06;5025357;28;24431;-73
2022/10/19 00:58:56;;;;;;;10.73;7.07;;;;;;;12.48;100.00;96784.22;5023433;28;24428;-73
2022/10/19 01:01:25;;;;;;;10.25;7.60;;;;;;;12.44;100.00;96780.97;5031546;28;24436;-73
2022/10/19 01:03:52;;;;;;;12.35;8.55;;;;;;;12.33;100.00;96780.69;5028291;28;24432;-72
2022/10/19 01:06:19;;;;;;;19.50;9.25;;;;;;;12.02;100.00;96771.13;5024482;28;24483;-73
2022/10/19 01:08:47;;;;;;;9.98;6.60;;;;;;;11.96;100.00;96766.22;5026065;28;24511;-74
2022/10/19 01:11:31;;;;;;;12.20;6.40;;;;;;;12.00;100.00;96765.97;5028400;28;24805;-73
2022/10/19 01:14:13;;;;;;;9.70;5.60;;;;;;;11.99;100.00;96772.09;5030621;28;25016;-73
2022/10/19 01:16:49;;;;;;;6.25;5.45;;;;;;;12.02;100.00;96773.72;5025785;28;24439;-72
2022/10/19 01:19:39;;;;;;;14.07;5.20;;;;;;;11.97;100.00;96766.13;5024780;28;24451;-73
2022/10/19 01:22:19;;;;;;;11.70;5.38;;;;;;;12.03;100.00;96768.41;5031017;28;24439;-75
2022/10/19 01:24:59;;;;;;;15.63;5.30;;;;;;;11.96;100.00;96753.25;5029131;28;24437;-72
2022/10/19 01:27:53;;;;;;;11.27;5.30;;;;;;;11.83;100.00;96753.03;5021092;28;24460;-73
2022/10/19 01:30:34;;;;;;;21.73;6.35;;;;;;;11.81;100.00;96754.84;5023867;28;24443;-73
2022/10/19 01:33:13;;;;;;;8.07;5.45;;;;;;;11.90;100.00;96756.16;5028212;28;24444;-73
2022/10/19 01:35:46;;;;;;;9.45;5.25;;;;;;;12.00;100.00;96753.00;5029339;28;24809;-73
2022/10/19 01:38:22;;;;;;;8.07;4.35;;;;;;;11.84;100.00;96760.75;5029270;28;24443;-73
2022/10/19 01:40:57;;;;;;;5.38;4.60;;;;;;;11.77;100.00;96750.75;5024753;28;24444;-73
2022/10/19 01:43:33;;;;;;;9.18;5.43;;;;;;;11.77;100.00;96750.75;5018652;28;24812;-73
2022/10/19 01:46:11;;;;;;;10.73;4.90;;;;;;;11.71;100.00;96749.28;5029264;28;24822;-73
2022/10/19 01:48:41;;;;;;;15.88;4.80;;;;;;;11.89;100.00;96744.09;5026585;28;24432;-74
2022/10/19 01:51:12;;;;;;;4.97;4.53;;;;;;;11.80;100.00;96743.66;5027669;28;24448;-73
2022/10/19 01:53:44;;;;;;;5.97;5.13;;;;;;;11.82;100.00;96739.19;5029672;28;24439;-74
2022/10/19 01:56:13;;;;;;;5.93;4.95;;;;;;;11.82;100.00;96735.75;5029482;28;24452;-74
2022/10/19 01:58:44;;;;;;;5.72;5.30;;;;;;;11.75;100.00;96726.63;5026653;28;24440;-74
2022/10/19 02:01:15;;;;;;;5.45;4.95;;;;;;;11.76;100.00;96738.69;5029599;28;24789;-74
2022/10/19 02:03:42;;;;;;;5.45;4.95;;;;;;;11.73;100.00;96731.06;5020704;28;24448;-74
2022/10/19 02:06:11;;;;;;;5.82;4.65;;;;;;;11.74;100.00;96725.78;5028491;28;24456;-73
2022/10/19 02:08:43;;;;;;;6.78;4.43;;;;;;;11.52;100.00;96723.47;5029891;28;24442;-74
2022/10/19 02:11:10;;;;;;;9.23;4.82;;;;;;;11.41;100.00;96724.94;5027228;28;24440;-74
2022/10/19 02:13:39;;;;;;;5.55;5.05;;;;;;;11.41;100.00;96730.13;5026816;28;24439;-74
2022/10/19 02:16:10;;;;;;;6.57;5.60;;;;;;;11.41;100.00;96717.97;5026504;28;25037;-74
2022/10/19 02:18:44;;;;;;;5.85;4.57;;;;;;;11.42;100.00;96730.06;5029645;28;24822;-74
2022/10/19 02:21:11;;;;;;;7.25;4.97;;;;;;;11.42;100.00;96735.25;5028818;28;24439;-74
2022/10/19 02:23:38;;;;;;;6.50;4.72;;;;;;;11.29;100.00;96735.00;5027155;28;24439;-73
2022/10/19 02:26:05;;;;;;;5.63;5.00;;;;;;;11.06;100.00;96732.72;5023663;28;25066;-74
2022/10/19 02:28:33;;;;;;;8.07;6.20;;;;;;;11.18;100.00;96724.34;5025452;28;22844;-74
2022/10/19 02:31:00;;;;;;;10.82;7.32;;;;;;;11.34;100.00;96727.81;5021134;28;24436;-74
2022/10/19 02:33:28;;;;;;;11.52;6.50;;;;;;;11.67;100.00;96728.78;5027687;28;24443;-73
2022/10/19 02:35:56;;;;;;;7.85;5.65;;;;;;;11.52;100.00;96733.84;5029414;28;24442;-73
2022/10/19 02:38:24;;;;;;;6.87;6.10;;;;;;;11.47;100.00;96730.66;5029314;28;25085;-75
2022/10/19 02:40:59;;;;;;;14.55;6.97;;;;;;;11.47;100.00;96729.81;5024058;28;25004;-75
2022/10/19 02:43:28;;;;;;;11.48;7.18;;;;;;;11.46;100.00;96728.97;5022906;28;24431;-74
2022/10/19 02:46:00;;;;;;;8.63;7.45;;;;;;;11.49;100.00;96726.19;5028419;28;24447;-73
2022/10/19 02:48:30;;;;;;;10.68;7.90;;;;;;;11.52;100.00;96720.03;5028055;28;24435;-75
2022/10/19 02:50:57;;;;;;;8.80;7.18;;;;;;;11.61;100.00;96723.00;5024136;28;24446;-74
2022/10/19 02:53:24;;;;;;;14.48;8.65;;;;;;;11.76;100.00;96723.97;5022194;28;24428;-74
2022/10/19 02:55:51;;;;;;;10.10;7.95;;;;;;;11.72;100.00;96722.44;5024589;28;24441;-73
2022/10/19 02:58:18;;;;;;;7.97;7.15;;;;;;;11.69;100.00;96717.41;5024221;28;24436;-74
2022/10/19 03:00:44;;;;;;;7.83;7.00;;;;;;;11.77;100.00;96717.84;5021399;28;24443;-73
2022/10/19 03:03:11;;;;;;;7.82;6.97;;;;;;;11.80;100.00;96715.09;5027595;28;24451;-73
2022/10/19 03:05:37;;;;;;;11.27;7.63;;;;;;;11.89;100.00;96710.38;5028441;28;24810;-74
2022/10/19 03:08:05;;;;;;;11.50;8.43;;;;;;;11.91;100.00;96717.16;5027474;28;24451;-74
2022/10/19 03:10:32;;;;;;;13.13;8.00;;;;;;;11.93;100.00;96717.06;5025117;28;24439;-73
2022/10/19 03:12:59;;;;;;;10.55;7.40;;;;;;;11.98;100.00;96712.47;5021541;28;25076;-74
2022/10/19 03:15:27;;;;;;;7.95;7.15;;;;;;;12.04;100.00;96702.59;5023145;28;24432;-73
2022/10/19 03:17:54;;;;;;;7.28;4.97;;;;;;;12.04;100.00;96704.34;5027869;28;24428;-74
2022/10/19 03:20:21;;;;;;;7.43;6.70;;;;;;;12.14;100.00;96702.09;5019399;28;24670;-74
2022/10/19 03:22:47;;;;;;;10.63;7.90;;;;;;;12.16;100.00;96708.88;5020889;28;24435;-73
2022/10/19 03:25:15;;;;;;;9.27;7.05;;;;;;;12.19;100.00;96694.91;5028294;28;24445;-74
2022/10/19 03:27:42;;;;;;;13.30;8.25;;;;;;;12.23;100.00;96701.59;5029442;28;24460;-74
2022/10/19 03:30:09;;;;;;;9.67;8.53;;;;;;;12.26;100.00;96704.03;5020374;28;24977;-74
2022/10/19 03:32:35;;;;;;;11.82;7.50;;;;;;;12.23;100.00;96697.22;5027996;28;24432;-74
2022/10/19 03:35:02;;;;;;;8.68;7.47;;;;;;;12.31;100.00;96697.69;5027320;28;24996;-73
2022/10/19 03:37:28;;;;;;;14.20;7.53;;;;;;;12.30;100.00;96695.16;5025541;28;24436;-73
2022/10/19 03:39:55;;;;;;;8.98;7.28;;;;;;;12.29;100.00;96698.66;5028193;28;25008;-74
2022/10/19 03:42:22;;;;;;;9.30;7.78;;;;;;;12.34;100.00;96694.06;5017297;28;24443;-74
2022/10/19 03:44:49;;;;;;;11.43;8.05;;;;;;;12.37;100.00;96698.25;5021761;28;24810;-74
2022/10/19 03:47:15;;;;;;;24.35;6.57;;;;;;;12.26;100.00;96693.63;5027559;28;24464;-74
2022/10/19 03:49:42;;;;;;;24.83;7.18;;;;;;;12.29;100.00;96698.66;5027861;28;24515;-73
2022/10/19 03:52:09;;;;;;;9.52;7.43;;;;;;;12.35;100.00;96696.59;5024039;28;24440;-74
2022/10/19 03:54:35;;;;;;;13.13;7.25;;;;;;;12.31;100.00;96695.06;5028416;28;25039;-74
2022/10/19 03:57:02;;;;;;;8.77;6.63;;;;;;;12.33;100.00;96697.56;5027429;28;24447;-73
2022/10/19 03:59:30;;;;;;;8.15;7.32;;;;;;;12.37;100.00;96690.44;5028442;28;24462;-74
2022/10/19 04:01:56;;;;;;;8.57;7.78;;;;;;;12.42;100.00;96699.69;5024508;28;24440;-74
2022/10/19 04:04:23;;;;;;;20.00;7.63;;;;;;;12.33;100.00;96695.81;5028464;28;24451;-74
2022/10/19 04:06:52;;;;;;;12.70;7.47;;;;;;;12.35;100.00;96698.34;5029612;28;24471;-74
2022/10/19 04:09:21;;;;;;;9.65;7.13;;;;;;;12.43;100.00;96690.97;5029420;28;24543;-73
2022/10/19 04:11:47;;;;;;;6.70;5.45;;;;;;;12.42;100.00;96691.03;5026924;28;24789;-74
2022/10/19 04:14:16;;;;;;;4.97;4.47;;;;;;;12.43;100.00;96683.16;5022607;28;24436;-75
2022/10/19 04:16:43;;;;;;;8.18;5.10;;;;;;;12.44;100.00;96691.78;5025648;28;24493;-75
2022/10/19 04:19:14;;;;;;;7.55;4.88;;;;;;;12.47;100.00;96689.03;5027952;28;24428;-74
2022/10/19 04:21:42;;;;;;;6.10;5.50;;;;;;;12.49;100.00;96685.41;5026457;28;25050;-74
2022/10/19 04:24:10;;;;;;;8.50;5.90;;;;;;;12.50;100.00;96692.28;5027614;28;24432;-74
2022/10/19 04:26:40;;;;;;;10.10;5.78;;;;;;;12.50;100.00;96694.06;5025782;28;24448;-74
2022/10/19 04:29:06;;;;;;;7.38;5.93;;;;;;;12.47;100.00;96694.22;5025700;28;24798;-74
2022/10/19 04:31:33;;;;;;;11.93;6.32;;;;;;;12.42;100.00;96694.50;5023920;28;24442;-73
2022/10/19 04:34:01;;;;;;;7.30;6.05;;;;;;;12.41;100.00;96699.75;5026675;28;24428;-74
2022/10/19 04:36:27;;;;;;;8.30;6.07;;;;;;;12.47;100.00;96700.25;5025603;28;25031;-73
2022/10/19 04:38:54;;;;;;;9.65;6.65;;;;;;;12.50;100.00;96692.28;5028630;28;24443;-73
2022/10/19 04:41:22;;;;;;;10.05;6.45;;;;;;;12.50;100.00;96689.69;5027004;28;25004;-73
2022/10/19 04:43:49;;;;;;;10.50;6.45;;;;;;;12.58;100.00;96692.69;5031770;28;24534;-74
2022/10/19 04:46:17;;;;;;;15.00;6.43;;;;;;;12.75;100.00;96680.50;5031015;28;25087;-74
2022/10/19 04:48:45;;;;;;;18.67;7.55;;;;;;;12.84;100.00;96682.59;5025934;28;24456;-74
2022/10/19 04:51:13;;;;;;;8.75;7.47;;;;;;;12.73;100.00;96680.59;5030151;28;24432;-73
2022/10/19 04:53:42;;;;;;;9.57;7.55;;;;;;;12.87;100.00;96686.75;5029707;28;24450;-73
2022/10/19 04:56:12;;;;;;;7.85;7.05;;;;;;;12.70;100.00;96677.34;5029852;28;24802;-74
2022/10/19 04:58:38;;;;;;;10.63;6.53;;;;;;;12.65;100.00;96677.59;5022111;28;24435;-73
2022/10/19 05:01:09;;;;;;;8.45;6.72;;;;;;;12.56;100.00;96678.09;5028429;28;25009;-74
2022/10/19 05:03:36;;;;;;;9.55;7.90;;;;;;;12.56;100.00;96686.75;5027363;28;24439;-73
2022/10/19 05:06:03;;;;;;;11.50;7.07;;;;;;;12.54;100.00;96687.75;5030258;28;24439;-74
2022/10/19 05:08:31;;;;;;;7.82;6.90;;;;;;;12.49;100.00;96685.41;5027053;28;24455;-73
2022/10/19 05:11:00;;;;;;;11.95;7.07;;;;;;;12.53;100.00;96683.47;5026766;28;24443;-73
2022/10/19 05:13:27;;;;;;;8.43;7.15;;;;;;;12.51;100.00;96680.97;5021731;28;25026;-72
2022/10/19 05:15:57;;;;;;;10.77;7.60;;;;;;;12.47;100.00;96681.22;5028183;28;25031;-72
2022/10/19 05:18:24;;;;;;;12.95;8.55;;;;;;;12.35;100.00;96682.75;5024635;28;24446;-72
2022/10/19 05:20:50;;;;;;;13.68;9.05;;;;;;;12.29;100.00;96678.72;5023522;28;24443;-72
2022/10/19 05:23:17;;;;;;;14.07;9.30;;;;;;;12.35;100.00;96687.94;5020102;28;24442;-73
2022/10/19 05:25:45;;;;;;;18.13;9.82;;;;;;;12.35;100.00;96675.81;5024333;28;24443;-72
2022/10/19 05:28:11;;;;;;;17.88;10.20;;;;;;;12.43;100.00;96674.53;5026027;28;24451;-72
2022/10/19 05:30:38;;;;;;;13.55;9.63;;;;;;;12.56;100.00;96665.94;5027165;28;24442;-73
2022/10/19 05:33:04;;;;;;;13.88;8.75;;;;;;;12.55;100.00;96663.44;5025884;28;24493;-71
2022/10/19 05:35:31;;;;;;;12.55;8.52;;;;;;;12.50;100.00;96662.88;5030291;28;24447;-72
2022/10/19 05:37:57;;;;;;;16.05;9.18;;;;;;;12.71;100.00;96660.81;5030476;28;24428;-72
2022/10/19 05:40:24;;;;;;;22.77;9.18;;;;;;;12.74;100.00;96660.63;5022862;28;24447;-71
2022/10/19 05:42:52;;;;;;;13.40;9.27;;;;;;;12.64;100.00;96660.31;5028124;28;25019;-72
2022/10/19 05:45:18;;;;;;;14.13;9.55;;;;;;;12.64;100.00;96656.88;5027564;28;24432;-71
2022/10/19 05:47:45;;;;;;;17.73;10.70;;;;;;;12.65;100.00;96659.41;5021806;28;24806;-73
2022/10/19 05:50:11;;;;;;;13.48;9.73;;;;;;;12.62;100.00;96654.38;5019600;28;24443;-71
2022/10/19 05:52:38;;;;;;;17.70;10.40;;;;;;;12.61;100.00;96657.91;5025288;28;24806;-72
2022/10/19 05:55:05;;;;;;;17.77;10.52;;;;;;;12.66;100.00;96662.84;5019328;28;24443;-71
2022/10/19 05:57:32;;;;;;;30.77;10.75;;;;;;;12.62;100.00;96667.38;5028150;28;24818;-72
2022/10/19 06:00:00;;;;;;;18.85;12.32;;;;;;;12.48;100.00;96667.31;5029000;28;24513;-71
2022/10/19 06:02:26;;;;;;;18.95;11.45;;;;;;;12.47;100.00;96663.88;5027117;28;24447;-72
2022/10/19 06:04:53;;;;;;;20.98;12.27;;;;;;;12.52;100.00;96663.63;5026414;28;24420;-72
2022/10/19 06:07:19;;;;;;;17.33;11.32;;;;;;;12.59;100.00;96667.53;5027649;28;24436;-71
2022/10/19 06:09:46;;;;;;;20.93;10.90;;;;;;;12.66;100.00;96671.47;5028187;28;24822;-72
2022/10/19 06:12:13;;;;;;;14.82;10.52;;;;;;;12.75;100.00;96667.50;5027875;28;24494;-72
2022/10/19 06:14:40;;;;;;;18.35;10.75;;;;;;;12.71;100.00;96671.22;5030016;28;24443;-69
2022/10/19 06:17:08;;;;;;;15.45;9.48;;;;;;;12.68;100.00;96669.63;5027936;28;24491;-72
2022/10/19 06:19:34;;;;;;;18.23;10.10;;;;;;;12.78;100.00;96672.53;5024427;28;24448;-72
2022/10/19 06:22:01;;;;;;;16.83;10.43;;;;;;;12.74;100.00;96671.03;5020793;28;24441;-72
2022/10/19 06:24:27;;;;;;;13.60;9.45;;;;;;;12.72;100.00;96678.06;5022660;28;24447;-72
2022/10/19 06:26:54;;;;;;;19.58;11.70;;;;;;;12.91;100.00;96673.50;5027803;28;24443;-72
2022/10/19 06:29:20;;;;;;;16.73;10.68;;;;;;;12.76;100.00;96675.22;5022477;28;24818;-73
2022/10/19 06:31:47;;;;;;;18.10;11.00;;;;;;;12.95;100.00;96679.38;5027440;28;24432;-72
2022/10/19 06:34:15;;;;;;;18.60;11.50;;;;;;;12.76;100.00;96677.84;5026907;28;24447;-71
2022/10/19 06:36:42;;;;;;;16.27;11.70;;;;;;;12.87;100.00;96682.41;5024333;28;24822;-71
2022/10/19 06:39:08;;;;;;;22.13;12.65;;;;;;;13.10;100.00;96691.50;5018143;28;24805;-71
2022/10/19 06:41:35;;;;;;;18.88;12.32;;;;;;;12.82;100.00;96687.03;5023374;28;24432;-72
2022/10/19 06:44:01;;;;;;;17.45;10.82;;;;;;;12.80;100.00;96687.13;5029099;28;24854;-72
2022/10/19 06:46:28;;;;;;;16.57;11.87;;;;;;;12.83;100.00;96686.97;5023810;28;25008;-72
2022/10/19 06:48:57;;;;;;;18.42;10.80;;;;;;;12.83;100.00;96693.94;5024312;28;24447;-72
2022/10/19 06:51:26;;;;;;;19.67;10.70;;;;;;;12.78;100.00;96688.97;5025604;28;24437;-72
2022/10/19 06:53:53;;;;;;;18.63;11.10;;;;;;;12.90;100.00;96687.41;5017817;28;24487;-72
2022/10/19 06:56:20;;;;;;;20.10;11.15;;;;;;;12.92;100.00;96692.56;5027327;28;24798;-71
2022/10/19 06:58:48;;;;;;;12.75;9.73;;;;;;;12.90;100.00;96687.41;5027137;28;25099;-74
2022/10/19 07:01:15;;;;;;;13.00;9.97;;;;;;;12.95;100.00;96685.41;5027443;28;24817;-72
2022/10/19 07:03:42;;;;;;;14.98;9.68;;;;;;;12.94;100.00;96693.28;5025266;28;25059;-72
2022/10/19 07:06:11;;;;;;;14.20;9.25;;;;;;;12.90;100.00;96691.78;5028487;28;24499;-72
2022/10/19 07:08:40;;;;;;;22.38;12.90;;;;;;;12.83;100.00;96689.56;5024186;28;24494;-76
2022/10/19 07:11:09;;;;;;;14.55;10.15;;;;;;;12.83;100.00;96692.16;5034897;28;24438;-76
2022/10/19 07:13:36;;;;;;;16.53;9.97;;;;;;;12.89;100.00;96685.75;5039584;28;24444;-72
2022/10/19 07:16:05;;;;;;;12.90;9.25;;;;;;;12.90;100.00;96684.81;5029035;28;24439;-72
2022/10/19 07:18:33;;;;;;;14.82;9.25;;;;;;;12.99;100.00;96691.28;5026275;28;24474;-74
2022/10/19 07:21:02;;;;;;;15.95;9.60;;;;;;;13.03;100.00;96688.41;5025589;28;24494;-73
2022/10/19 07:23:31;;;;;;;16.80;9.75;;;;;;;13.05;100.00;96690.91;5026774;28;24439;-72
2022/10/19 07:26:03;;;;;;;15.57;8.98;;;;;;;13.03;100.00;96687.56;5028089;28;24443;-73
2022/10/19 07:28:30;;;;;;;16.88;10.60;;;;;;;13.62;100.00;96691.03;5024013;28;24459;-72
2022/10/19 07:30:56;;;;;;;18.00;10.18;;;;;;;13.45;100.00;96694.63;5028690;28;24435;-74
2022/10/19 07:33:23;;;;;;;16.05;10.38;;;;;;;13.35;100.00;96692.66;5016214;28;24440;-72
2022/10/19 07:35:50;;;;;;;19.27;11.50;;;;;;;13.37;100.00;96694.25;5020947;28;24805;-72
2022/10/19 07:38:16;;;;;;;14.57;10.23;;;;;;;13.27;100.00;96696.59;5019722;28;24436;-74
2022/10/19 07:40:43;;;;;;;16.88;10.73;;;;;;;13.17;100.00;96700.63;5021939;28;24440;-72
2022/10/19 07:43:11;;;;;;;21.70;11.18;;;;;;;13.30;100.00;96701.59;5020506;28;24440;-74
2022/10/19 07:45:37;;;;;;;13.68;10.68;;;;;;;13.32;100.00;96694.53;5028238;28;24447;-72
2022/10/19 07:48:04;;;;;;;16.55;11.63;;;;;;;13.42;100.00;96691.38;5027196;28;24462;-71
2022/10/19 07:50:30;;;;;;;17.20;11.10;;;;;;;13.50;100.00;96678.78;5028009;28;24432;-73
2022/10/19 07:52:57;;;;;;;18.52;12.65;;;;;;;13.57;100.00;96682.66;5028514;28;24443;-72
2022/10/19 07:55:23;;;;;;;14.73;11.00;;;;;;;13.55;100.00;96679.31;5026561;28;24981;-72
2022/10/19 07:57:50;;;;;;;15.23;11.48;;;;;;;13.47;100.00;96687.59;5028479;28;24432;-72
2022/10/19 08:00:18;;;;;;;21.08;11.65;;;;;;;13.55;100.00;96682.75;5027812;28;25005;-73
2022/10/19 08:02:44;;;;;;;18.52;12.70;;;;;;;13.71;100.00;96695.69;5023984;28;25029;-71
2022/10/19 08:05:11;;;;;;;20.45;15.88;;;;;;;14.16;100.00;96698.16;5025887;28;24447;-74
2022/10/19 08:07:37;;;;;;;19.23;15.82;;;;;;;13.96;100.00;96696.78;5027001;28;24440;-72
2022/10/19 08:10:05;;;;;;;20.77;15.37;;;;;;;13.92;100.00;96698.75;5026883;28;24460;-74
2022/10/19 08:12:31;;;;;;;19.38;14.73;;;;;;;14.06;100.00;96703.13;5029414;28;24436;-74
2022/10/19 08:14:58;;;;;;;19.77;15.02;;;;;;;14.18;100.00;96702.34;5032136;28;24638;-72
2022/10/19 08:17:26;;;;;;;18.60;14.82;;;;;;;14.19;100.00;96709.22;5032088;28;24447;-72
2022/10/19 08:19:52;;;;;;;22.98;16.35;;;;;;;14.09;100.00;96699.47;5025177;28;24973;-72
2022/10/19 08:22:19;;;;;;;18.95;13.93;;;;;;;14.31;100.00;96698.97;5028562;28;24515;-72
2022/10/19 08:24:45;;;;;;;17.67;14.05;;;;;;;14.27;100.00;96695.72;5024279;28;24443;-72
2022/10/19 08:27:13;;;;;;;17.05;12.65;;;;;;;14.19;100.00;96700.56;5027816;28;24451;-75
2022/10/19 08:29:40;;;;;;;14.90;12.55;;;;;;;14.23;100.00;96699.44;5025880;28;24479;-74
2022/10/19 08:32:06;;;;;;;17.25;14.82;;;;;;;14.15;100.00;96699.94;5021744;28;24438;-72
2022/10/19 08:34:34;;;;;;;18.52;13.32;;;;;;;14.02;100.00;96699.88;5016928;28;24428;-72
2022/10/19 08:37:01;;;;;;;13.88;11.48;;;;;;;13.96;100.00;96699.41;5031556;28;24813;-72
2022/10/19 08:39:28;;;;;;;14.02;10.88;;;;;;;14.08;100.00;96696.03;5026908;28;25014;-72
2022/10/19 08:42:03;;;;;;;14.10;10.05;;;;;;;14.02;100.00;96692.06;5027934;28;24435;-73
2022/10/19 08:44:57;;;;;;;9.82;8.73;;;;;;;14.14;100.00;96697.44;5024395;28;24440;-72
2022/10/19 08:47:35;;;;;;;10.85;9.35;;;;;;;14.51;100.00;96701.19;5031159;28;24803;-72
2022/10/19 08:50:16;;;;;;;11.90;10.70;;;;;;;14.53;100.00;96688.88;5030898;28;24992;-72
2022/10/19 08:52:45;;;;;;;12.20;11.00;;;;;;;14.46;100.00;96688.44;5028899;28;25015;-73
2022/10/19 08:55:15;;;;;;;12.45;11.13;;;;;;;14.45;100.00;96688.50;5030414;28;24443;-72
2022/10/19 08:57:51;;;;;;;14.38;11.65;;;;;;;14.43;100.00;96675.59;5024916;28;24441;-74
2022/10/19 09:00:27;;;;;;;14.40;11.38;;;;;;;14.36;100.00;96670.88;5027105;28;24432;-72
2022/10/19 09:03:03;;;;;;;12.18;10.80;;;;;;;14.38;100.00;96676.81;5028109;28;24431;-72
2022/10/19 09:05:40;;;;;;;14.45;11.65;;;;;;;14.36;100.00;96671.69;5027578;28;24563;-71
2022/10/19 09:08:09;;;;;;;12.90;10.70;;;;;;;14.28;100.00;96663.53;5021325;28;24451;-72
2022/10/19 09:10:39;;;;;;;11.88;10.57;;;;;;;14.11;100.00;96669.78;5024190;28;24474;-71
2022/10/19 09:13:15;;;;;;;13.82;11.40;;;;;;;14.17;100.00;96665.97;5028315;28;24435;-71
2022/10/19 09:15:45;;;;;;;12.25;11.00;;;;;;;14.22;100.00;96666.53;5025953;28;24447;-72
2022/10/19 09:18:17;;;;;;;13.30;11.85;;;;;;;14.33;100.00;96669.28;5025492;28;24459;-72
2022/10/19 09:20:48;;;;;;;14.75;11.45;;;;;;;14.27;100.00;96665.28;5025849;28;25044;-72
2022/10/19 09:23:21;;;;;;;15.30;12.88;;;;;;;14.49;100.00;96672.59;5029263;28;24432;-72
2022/10/19 09:25:50;;;;;;;15.65;13.02;;;;;;;14.49;100.00;96670.00;5026911;28;24440;-72
2022/10/19 09:28:33;;;;;;;20.15;14.07;;;;;;;14.44;100.00;96669.44;5027485;28;24466;-72
2022/10/19 09:30:59;;;;;;;17.03;13.30;;;;;;;14.22;100.00;96674.34;5022287;28;24432;-71
2022/10/19 09:33:31;;;;;;;14.95;11.68;;;;;;;14.25;100.00;96671.53;5026659;28;24436;-71
2022/10/19 09:36:00;;;;;;;14.15;12.00;;;;;;;14.32;100.00;96672.00;5027200;28;24443;-75
2022/10/19 09:38:28;;;;;;;12.85;10.82;;;;;;;14.24;100.00;96672.47;5024251;28;24455;-72
2022/10/19 09:40:57;;;;;;;14.55;12.25;;;;;;;14.34;100.00;96676.16;5029802;28;24432;-72
2022/10/19 09:43:25;;;;;;;19.17;14.55;;;;;;;14.27;100.00;96674.88;5030931;28;25012;-71
2022/10/19 09:45:55;;;;;;;18.48;13.50;;;;;;;14.17;100.00;96671.19;5023681;28;24456;-73
2022/10/19 09:48:28;;;;;;;17.48;13.45;;;;;;;14.26;100.00;96674.03;5031469;28;24440;-71
2022/10/19 09:50:59;;;;;;;17.08;13.57;;;;;;;14.25;100.00;96672.38;5031558;28;24432;-72
2022/10/19 09:53:29;;;;;;;17.37;13.73;;;;;;;14.27;100.00;96669.66;5031297;28;24490;-71
2022/10/19 09:56:02;;;;;;;18.63;13.70;;;;;;;14.19;100.00;96662.31;5031104;28;24502;-71
2022/10/19 09:58:30;;;;;;;16.10;14.05;;;;;;;14.40;100.00;96659.31;5018780;28;24813;-71
2022/10/19 10:00:57;;;;;;;12.35;11.05;;;;;;;14.43;100.00;96662.56;5030809;28;25067;-73
2022/10/19 10:03:29;;;;;;;14.90;10.98;;;;;;;14.35;100.00;96663.97;5025310;28;24502;-71
2022/10/19 10:05:58;;;;;;;14.15;10.20;;;;;;;14.24;100.00;96662.06;5026467;28;24442;-71
2022/10/19 10:08:31;;;;;;;12.27;10.43;;;;;;;14.09;100.00;96670.81;5018822;28;24440;-71
2022/10/19 10:11:06;;;;;;;16.90;11.97;;;;;;;14.25;100.00;96667.16;5027636;28;24522;-71
2022/10/19 10:13:37;;;;;;;17.70;12.70;;;;;;;14.40;100.00;96667.13;5024386;28;24478;-73
2022/10/19 10:16:07;;;;;;;17.87;14.50;;;;;;;14.28;100.00;96666.16;5033321;28;24519;-72
2022/10/19 10:18:38;;;;;;;18.30;14.85;;;;;;;14.16;100.00;96667.72;5040014;28;24436;-72
2022/10/19 10:21:13;;;;;;;20.77;14.23;;;;;;;14.13;100.00;96673.16;5030923;28;25047;-71
2022/10/19 10:23:41;;;;;;;15.77;13.85;;;;;;;14.15;100.00;96666.06;5025675;28;24435;-72
2022/10/19 10:26:18;;;;;;;18.60;14.45;;;;;;;14.13;100.00;96657.53;5025046;28;24447;-73
2022/10/19 10:28:50;;;;;;;15.70;12.30;;;;;;;14.17;100.00;96655.56;5028947;28;24475;-73
2022/10/19 10:31:22;;;;;;;18.33;14.38;;;;;;;14.09;100.00;96649.97;5027468;28;24853;-72
2022/10/19 10:33:55;;;;;;;22.50;13.90;;;;;;;14.10;100.00;96651.66;5030105;28;24455;-73
2022/10/19 10:36:25;;;;;;;17.42;13.70;;;;;;;13.99;100.00;96647.97;5025846;28;24447;-71
2022/10/19 10:39:07;;;;;;;17.77;14.52;;;;;;;13.92;100.00;96651.03;5029626;28;24440;-71
2022/10/19 10:41:39;;;;;;;16.48;13.80;;;;;;;13.98;100.00;96648.06;5020287;28;24435;-73
2022/10/19 10:44:08;;;;;;;18.48;13.85;;;;;;;13.91;100.00;96646.78;5028270;28;24448;-74
2022/10/19 10:46:38;;;;;;;17.15;14.30;;;;;;;13.90;100.00;96640.69;5029109;28;24443;-74
2022/10/19 10:49:07;;;;;;;19.27;14.52;;;;;;;13.87;100.00;96643.53;5028505;28;24451;-73
2022/10/19 10:51:39;;;;;;;18.20;13.60;;;;;;;13.84;100.00;96632.47;5029667;28;24439;-74
2022/10/19 10:54:17;;;;;;;15.20;13.43;;;;;;;13.95;100.00;96641.28;5028786;28;24459;-74
2022/10/19 10:56:57;;;;;;;19.88;13.48;;;;;;;13.84;100.00;96635.91;5024572;28;24447;-71
2022/10/19 10:59:28;;;;;;;14.27;11.83;;;;;;;13.68;100.00;96640.34;5025882;28;25082;-73
2022/10/19 11:02:02;;;;;;;15.50;13.67;;;;;;;13.91;100.00;96639.78;5027977;28;24436;-74
2022/10/19 11:04:34;;;;;;;17.95;13.50;;;;;;;14.09;100.00;96632.59;5029280;28;24443;-74
2022/10/19 11:07:12;;;;;;;15.05;13.23;;;;;;;14.26;100.00;96631.50;5029284;28;24455;-73
2022/10/19 11:09:44;;;;;;;16.48;13.55;;;;;;;14.14;100.00;96625.31;5029320;28;25001;-73
2022/10/19 11:12:13;;;;;;;16.27;13.75;;;;;;;14.04;100.00;96625.06;5027570;28;24436;-74
2022/10/19 11:14:46;;;;;;;15.38;13.90;;;;;;;14.10;100.00;96626.44;5026808;28;24436;-74
2022/10/19 11:17:20;;;;;;;15.57;11.55;;;;;;;14.02;100.00;96628.72;5027681;28;24436;-73
2022/10/19 11:19:49;;;;;;;21.55;12.52;;;;;;;13.93;100.00;96621.47;5028375;28;24981;-74
2022/10/19 11:22:22;;;;;;;19.35;14.73;;;;;;;14.03;100.00;96622.56;5026610;28;24534;-74
2022/10/19 11:25:03;;;;;;;17.02;13.93;;;;;;;14.03;100.00;96612.13;5026341;28;24554;-72
2022/10/19 11:27:43;;;;;;;16.30;13.15;;;;;;;13.90;100.00;96611.22;5026739;28;24439;-74